sensor_id;sensor_type;location;lat;lon;timestamp;P1;durP1;ratioP1;P2;durP2;ratioP2
7883;SDS011;3987;51.458;7.238;2023-09-19T00:13:47;6.43;;;2.30;;
7883;SDS011;3987;51.458;7.238;2023-09-19T00:28:52;2.73;;;2.40;;
7883;SDS011;3987;51.458;7.238;2023-09-19T00:43:52;5.63;;;1.90;;
7883;SDS011;3987;51.458;7.238;2023-09-19T00:58:53;9.13;;;2.50;;
7883;SDS011;3987;51.458;7.238;2023-09-19T01:14:07;9.40;;;2.53;;
7883;SDS011;3987;51.458;7.238;2023-09-19T01:44:45;9.87;;;2.40;;
7883;SDS011;3987;51.458;7.238;2023-09-19T02:00:08;8.20;;;2.03;;
7883;SDS011;3987;51.458;7.238;2023-09-19T02:15:15;4.23;;;2.53;;
7883;SDS011;3987;51.458;7.238;2023-09-19T02:30:16;4.03;;;1.63;;
7883;SDS011;3987;51.458;7.238;2023-09-19T02:45:19;5.13;;;2.40;;
7883;SDS011;3987;51.458;7.238;2023-09-19T03:00:20;2.60;;;1.87;;
7883;SDS011;3987;51.458;7.238;2023-09-19T03:15:21;6.70;;;2.73;;
7883;SDS011;3987;51.458;7.238;2023-09-19T03:30:24;10.90;;;2.80;;
7883;SDS011;3987;51.458;7.238;2023-09-19T03:45:24;7.13;;;2.27;;
7883;SDS011;3987;51.458;7.238;2023-09-19T04:00:26;11.33;;;2.50;;
7883;SDS011;3987;51.458;7.238;2023-09-19T04:15:27;10.77;;;2.77;;
7883;SDS011;3987;51.458;7.238;2023-09-19T04:30:28;7.37;;;2.73;;
7883;SDS011;3987;51.458;7.238;2023-09-19T04:45:29;3.77;;;2.03;;
7883;SDS011;3987;51.458;7.238;2023-09-19T05:00:29;11.90;;;2.37;;
7883;SDS011;3987;51.458;7.238;2023-09-19T05:15:30;8.30;;;2.57;;
7883;SDS011;3987;51.458;7.238;2023-09-19T05:30:32;7.70;;;2.53;;
7883;SDS011;3987;51.458;7.238;2023-09-19T05:45:32;8.17;;;2.87;;
7883;SDS011;3987;51.458;7.238;2023-09-19T06:00:33;5.57;;;2.63;;
7883;SDS011;3987;51.458;7.238;2023-09-19T06:15:33;10.40;;;2.57;;
7883;SDS011;3987;51.458;7.238;2023-09-19T06:30:36;9.40;;;2.63;;
7883;SDS011;3987;51.458;7.238;2023-09-19T06:45:40;5.53;;;2.67;;
7883;SDS011;3987;51.458;7.238;2023-09-19T07:00:40;6.63;;;2.30;;
7883;SDS011;3987;51.458;7.238;2023-09-19T07:15:40;6.67;;;2.57;;
7883;SDS011;3987;51.458;7.238;2023-09-19T07:30:46;8.67;;;2.27;;
7883;SDS011;3987;51.458;7.238;2023-09-19T07:45:47;7.73;;;2.77;;
7883;SDS011;3987;51.458;7.238;2023-09-19T08:00:49;7.77;;;2.50;;
7883;SDS011;3987;51.458;7.238;2023-09-19T08:15:49;5.70;;;2.50;;
7883;SDS011;3987;51.458;7.238;2023-09-19T08:30:51;5.40;;;2.80;;
7883;SDS011;3987;51.458;7.238;2023-09-19T08:46:10;11.23;;;2.87;;
7883;SDS011;3987;51.458;7.238;2023-09-19T09:01:15;11.00;;;2.20;;
7883;SDS011;3987;51.458;7.238;2023-09-19T09:16:17;16.40;;;4.60;;
7883;SDS011;3987;51.458;7.238;2023-09-19T09:31:22;5.87;;;1.87;;
7883;SDS011;3987;51.458;7.238;2023-09-19T09:46:24;3.13;;;2.07;;
7883;SDS011;3987;51.458;7.238;2023-09-19T10:01:25;2.10;;;1.90;;
7883;SDS011;3987;51.458;7.238;2023-09-19T10:16:28;2.90;;;1.90;;
7883;SDS011;3987;51.458;7.238;2023-09-19T10:31:32;7.53;;;3.00;;
7883;SDS011;3987;51.458;7.238;2023-09-19T10:46:35;4.10;;;2.17;;
7883;SDS011;3987;51.458;7.238;2023-09-19T11:01:41;4.17;;;1.93;;
7883;SDS011;3987;51.458;7.238;2023-09-19T11:32:13;1.73;;;1.63;;
7883;SDS011;3987;51.458;7.238;2023-09-19T11:47:16;3.83;;;2.57;;
7883;SDS011;3987;51.458;7.238;2023-09-19T12:02:27;2.60;;;1.80;;
7883;SDS011;3987;51.458;7.238;2023-09-19T12:17:39;8.87;;;2.07;;
7883;SDS011;3987;51.458;7.238;2023-09-19T12:32:42;7.33;;;2.20;;
7883;SDS011;3987;51.458;7.238;2023-09-19T13:03:38;3.97;;;1.73;;
7883;SDS011;3987;51.458;7.238;2023-09-19T13:18:46;4.80;;;1.45;;
7883;SDS011;3987;51.458;7.238;2023-09-19T13:33:51;4.10;;;1.30;;
7883;SDS011;3987;51.458;7.238;2023-09-19T13:48:52;1.30;;;1.20;;
7883;SDS011;3987;51.458;7.238;2023-09-19T14:03:54;2.87;;;1.10;;
7883;SDS011;3987;51.458;7.238;2023-09-19T14:18:57;2.37;;;0.90;;
7883;SDS011;3987;51.458;7.238;2023-09-19T14:33:58;3.60;;;0.97;;
7883;SDS011;3987;51.458;7.238;2023-09-19T14:49:00;1.70;;;0.73;;
7883;SDS011;3987;51.458;7.238;2023-09-19T15:04:03;1.00;;;0.60;;
7883;SDS011;3987;51.458;7.238;2023-09-19T15:19:04;1.13;;;0.80;;
7883;SDS011;3987;51.458;7.238;2023-09-19T15:34:05;2.50;;;0.70;;
7883;SDS011;3987;51.458;7.238;2023-09-19T15:49:07;1.70;;;0.70;;
7883;SDS011;3987;51.458;7.238;2023-09-19T16:04:08;0.60;;;0.60;;
7883;SDS011;3987;51.458;7.238;2023-09-19T16:19:09;2.20;;;0.70;;
7883;SDS011;3987;51.458;7.238;2023-09-19T16:34:10;3.30;;;0.70;;
7883;SDS011;3987;51.458;7.238;2023-09-19T16:49:10;2.33;;;1.10;;
7883;SDS011;3987;51.458;7.238;2023-09-19T17:04:11;1.67;;;0.80;;
7883;SDS011;3987;51.458;7.238;2023-09-19T17:19:11;0.90;;;0.77;;
7883;SDS011;3987;51.458;7.238;2023-09-19T17:34:12;1.70;;;1.00;;
7883;SDS011;3987;51.458;7.238;2023-09-19T17:49:16;1.00;;;0.63;;
7883;SDS011;3987;51.458;7.238;2023-09-19T18:04:17;1.20;;;1.03;;
7883;SDS011;3987;51.458;7.238;2023-09-19T18:19:18;1.90;;;0.80;;
7883;SDS011;3987;51.458;7.238;2023-09-19T18:34:19;2.20;;;0.83;;
7883;SDS011;3987;51.458;7.238;2023-09-19T18:49:19;2.50;;;1.50;;
7883;SDS011;3987;51.458;7.238;2023-09-19T19:04:22;1.97;;;1.03;;
7883;SDS011;3987;51.458;7.238;2023-09-19T19:19:25;1.67;;;1.00;;
7883;SDS011;3987;51.458;7.238;2023-09-19T19:34:27;4.53;;;1.00;;
7883;SDS011;3987;51.458;7.238;2023-09-19T19:49:27;1.10;;;0.90;;
7883;SDS011;3987;51.458;7.238;2023-09-19T20:04:28;2.90;;;1.00;;
7883;SDS011;3987;51.458;7.238;2023-09-19T20:19:28;3.47;;;1.50;;
7883;SDS011;3987;51.458;7.238;2023-09-19T20:34:33;1.30;;;1.20;;
7883;SDS011;3987;51.458;7.238;2023-09-19T20:49:33;3.00;;;1.23;;
7883;SDS011;3987;51.458;7.238;2023-09-19T21:04:34;2.43;;;1.27;;
7883;SDS011;3987;51.458;7.238;2023-09-19T21:19:34;2.70;;;1.17;;
7883;SDS011;3987;51.458;7.238;2023-09-19T21:34:35;2.07;;;1.13;;
7883;SDS011;3987;51.458;7.238;2023-09-19T21:49:35;3.70;;;1.30;;
7883;SDS011;3987;51.458;7.238;2023-09-19T22:04:36;2.17;;;1.53;;
7883;SDS011;3987;51.458;7.238;2023-09-19T22:19:37;4.68;;;1.95;;
7883;SDS011;3987;51.458;7.238;2023-09-19T22:34:43;4.13;;;1.73;;
7883;SDS011;3987;51.458;7.238;2023-09-19T22:49:44;1.87;;;1.73;;
7883;SDS011;3987;51.458;7.238;2023-09-19T23:04:44;1.50;;;1.40;;
7883;SDS011;3987;51.458;7.238;2023-09-19T23:19:45;3.37;;;1.50;;
7883;SDS011;3987;51.458;7.238;2023-09-19T23:34:49;6.30;;;2.00;;
7883;SDS011;3987;51.458;7.238;2023-09-19T23:49:50;3.17;;;1.63;;
